Time;durP1;ratioP1;P1;durP2;ratioP2;P2;SDS_P1;SDS_P2;PMS_P1;PMS_P2;Temp;Humidity;BMP_temperature;BMP_pressure;BME280_temperature;BME280_humidity;BME280_pressure;Samples;Min_cycle;Max_cycle;Signal;HPM_P1;HPM_P2
2021/08/09 00:00:27;;;;;;;2.30;1.43;;;20.10;99.90;;;;;;6277052;28;20576;-64
2021/08/09 00:03:30;;;;;;;2.67;1.40;;;20.10;99.90;;;;;;6277201;28;20329;-63
2021/08/09 00:06:34;;;;;;;2.00;1.70;;;20.00;99.90;;;;;;6271887;28;20231;-63
2021/08/09 00:09:39;;;;;;;2.43;1.53;;;20.00;99.90;;;;;;6276628;28;20261;-63
2021/08/09 00:12:42;;;;;;;2.20;1.37;;;20.00;99.90;;;;;;6276941;28;20227;-63
2021/08/09 00:15:45;;;;;;;3.77;1.33;;;20.00;99.90;;;;;;6276319;28;20239;-63
2021/08/09 00:18:49;;;;;;;1.20;1.10;;;19.90;99.90;;;;;;6276925;28;20228;-63
2021/08/09 00:21:52;;;;;;;1.60;1.10;;;19.90;99.90;;;;;;6276479;28;20231;-63
2021/08/09 00:24:57;;;;;;;0.93;0.90;;;19.90;99.90;;;;;;6276011;28;20228;-63
2021/08/09 00:28:00;;;;;;;1.40;1.27;;;19.90;99.90;;;;;;6276354;28;20231;-63
2021/08/09 00:31:03;;;;;;;1.17;1.10;;;19.90;99.90;;;;;;6276569;28;20228;-63
2021/08/09 00:34:06;;;;;;;1.60;1.20;;;19.70;99.90;;;;;;6276220;28;20232;-63
2021/08/09 00:37:10;;;;;;;1.43;1.20;;;19.70;99.90;;;;;;6275828;28;20231;-63
2021/08/09 00:40:14;;;;;;;1.60;1.10;;;19.70;99.90;;;;;;6275547;28;20565;-63
2021/08/09 00:43:17;;;;;;;3.17;1.30;;;19.70;99.90;;;;;;6275276;28;20238;-63
2021/08/09 00:46:21;;;;;;;1.33;1.20;;;19.70;99.90;;;;;;6275653;28;20242;-63
2021/08/09 00:49:24;;;;;;;1.13;0.90;;;19.70;99.90;;;;;;6276046;28;20223;-63
2021/08/09 00:52:27;;;;;;;1.00;0.90;;;19.70;99.90;;;;;;6275597;28;20231;-64
2021/08/09 00:55:32;;;;;;;1.70;1.33;;;19.70;99.90;;;;;;6275125;28;20235;-64
2021/08/09 00:58:36;;;;;;;2.67;1.30;;;19.70;99.90;;;;;;6276090;28;20689;-63
2021/08/09 01:01:39;;;;;;;2.50;1.60;;;19.70;99.90;;;;;;6275438;28;20469;-63
2021/08/09 01:04:42;;;;;;;2.00;1.43;;;19.70;99.90;;;;;;6275441;28;20477;-63
2021/08/09 01:07:56;;;;;;;1.20;1.10;;;19.70;99.90;;;;;;6270116;28;20216;-63
2021/08/09 01:11:09;;;;;;;1.30;1.20;;;19.70;99.90;;;;;;6274866;28;20183;-63
2021/08/09 01:14:23;;;;;;;2.20;1.37;;;19.70;99.90;;;;;;6274810;28;20236;-64
2021/08/09 01:17:31;;;;;;;1.80;1.70;;;19.80;99.90;;;;;;6275629;28;20241;-63
2021/08/09 01:20:47;;;;;;;3.57;1.50;;;19.80;99.90;;;;;;6275192;28;20236;-63
2021/08/09 01:23:56;;;;;;;1.37;1.27;;;19.70;99.90;;;;;;6275221;28;20239;-63
2021/08/09 01:27:08;;;;;;;1.60;1.47;;;19.70;99.90;;;;;;6274870;28;20700;-64
2021/08/09 01:30:13;;;;;;;2.23;1.40;;;19.70;99.90;;;;;;6275137;28;20227;-63
2021/08/09 01:33:17;;;;;;;1.50;1.40;;;19.60;99.90;;;;;;6274786;28;20573;-63
2021/08/09 01:36:22;;;;;;;3.90;1.87;;;19.60;99.90;;;;;;6274947;28;20227;-64
2021/08/09 01:39:26;;;;;;;2.63;1.30;;;19.60;99.90;;;;;;6274341;28;20227;-63
2021/08/09 01:42:30;;;;;;;2.40;2.20;;;19.60;99.90;;;;;;6274863;28;20720;-63
2021/08/09 01:45:35;;;;;;;2.53;1.50;;;19.50;99.90;;;;;;6274624;28;20546;-63
2021/08/09 01:48:38;;;;;;;2.23;1.70;;;19.50;99.90;;;;;;6275071;28;20231;-63
2021/08/09 01:51:44;;;;;;;1.77;1.60;;;19.40;99.90;;;;;;6274178;28;20615;-63
2021/08/09 01:54:47;;;;;;;5.50;1.70;;;19.40;99.90;;;;;;6274185;28;20697;-63
2021/08/09 01:57:51;;;;;;;3.23;1.47;;;19.40;99.90;;;;;;6274361;28;20227;-64
2021/08/09 02:00:55;;;;;;;2.17;1.70;;;19.40;99.90;;;;;;6274442;28;20231;-64
2021/08/09 02:03:59;;;;;;;2.03;1.60;;;19.40;99.90;;;;;;6274197;28;20369;-64
2021/08/09 02:07:02;;;;;;;1.53;1.43;;;19.40;99.90;;;;;;6274189;28;20227;-63
2021/08/09 02:10:09;;;;;;;2.60;1.73;;;19.50;99.90;;;;;;6274195;28;20243;-63
2021/08/09 02:13:19;;;;;;;1.60;1.50;;;19.50;99.90;;;;;;6273602;28;20227;-63
2021/08/09 02:16:31;;;;;;;1.93;1.70;;;19.50;99.90;;;;;;6269516;28;20573;-63
2021/08/09 02:19:39;;;;;;;1.53;1.43;;;19.40;99.90;;;;;;6274056;28;20239;-63
2021/08/09 02:22:45;;;;;;;2.00;1.80;;;19.40;99.90;;;;;;6273786;28;20247;-63
2021/08/09 02:25:52;;;;;;;1.73;1.63;;;19.40;99.90;;;;;;6273649;28;20243;-63
2021/08/09 02:29:07;;;;;;;1.90;1.53;;;19.40;99.90;;;;;;6274497;28;20207;-63
2021/08/09 02:32:13;;;;;;;1.70;1.57;;;19.40;99.90;;;;;;6273889;28;20834;-63
2021/08/09 02:35:19;;;;;;;1.70;1.60;;;19.40;99.90;;;;;;6273837;28;20231;-64
2021/08/09 02:38:24;;;;;;;2.00;1.80;;;19.50;99.90;;;;;;6273882;28;20231;-63
2021/08/09 02:41:29;;;;;;;1.53;1.43;;;19.40;99.90;;;;;;6274102;28;20235;-63
2021/08/09 02:44:33;;;;;;;1.60;1.50;;;19.40;99.90;;;;;;6273566;28;20622;-63
2021/08/09 02:47:40;;;;;;;1.80;1.70;;;19.50;99.90;;;;;;6274240;28;20231;-63
2021/08/09 02:50:45;;;;;;;3.03;2.77;;;19.50;99.90;;;;;;6278491;28;20481;-63
2021/08/09 02:53:49;;;;;;;2.50;2.30;;;19.50;99.90;;;;;;6278561;28;20704;-63
2021/08/09 02:56:53;;;;;;;3.03;2.70;;;19.40;99.90;;;;;;6278697;28;20250;-64
2021/08/09 02:59:57;;;;;;;2.70;2.30;;;19.50;99.90;;;;;;6278634;28;20223;-63
2021/08/09 03:03:01;;;;;;;2.43;2.10;;;19.50;99.90;;;;;;6278214;28;20572;-63
2021/08/09 03:06:06;;;;;;;2.30;1.93;;;19.50;99.90;;;;;;6278742;28;20231;-63
2021/08/09 03:09:10;;;;;;;4.70;2.53;;;19.50;99.90;;;;;;6278096;28;20235;-63
2021/08/09 03:12:16;;;;;;;1.77;1.67;;;19.60;99.90;;;;;;6278347;28;20235;-64
2021/08/09 03:15:19;;;;;;;4.63;1.70;;;19.60;99.90;;;;;;6277723;28;20243;-63
2021/08/09 03:18:32;;;;;;;1.70;1.50;;;19.50;99.90;;;;;;6268801;28;20719;-64
2021/08/09 03:21:39;;;;;;;2.40;2.20;;;19.50;99.90;;;;;;6277512;28;20484;-63
2021/08/09 03:24:42;;;;;;;2.20;2.00;;;19.50;99.90;;;;;;6277971;28;20227;-63
2021/08/09 03:27:45;;;;;;;1.60;1.50;;;19.40;99.90;;;;;;6277697;28;20238;-63
2021/08/09 03:30:48;;;;;;;2.67;1.83;;;19.40;99.90;;;;;;6277729;28;21037;-63
2021/08/09 03:33:53;;;;;;;2.23;1.77;;;19.40;99.90;;;;;;6277587;28;20568;-63
2021/08/09 03:36:56;;;;;;;2.30;2.13;;;19.30;99.90;;;;;;6277522;28;20657;-63
2021/08/09 03:39:59;;;;;;;3.77;3.43;;;19.30;99.90;;;;;;6277437;28;20232;-63
2021/08/09 03:43:03;;;;;;;3.97;3.57;;;19.20;99.90;;;;;;6277279;28;20231;-63
2021/08/09 03:46:06;;;;;;;3.17;2.63;;;19.10;99.90;;;;;;6277521;28;20474;-63
2021/08/09 03:49:10;;;;;;;4.87;2.57;;;19.10;99.90;;;;;;6277331;28;20239;-64
2021/08/09 03:52:13;;;;;;;1.93;1.83;;;19.10;99.90;;;;;;6277130;28;20477;-64
2021/08/09 03:55:17;;;;;;;1.70;1.60;;;19.10;99.90;;;;;;6276817;28;20485;-63
2021/08/09 03:58:20;;;;;;;3.53;1.90;;;19.10;99.90;;;;;;6277351;28;21093;-63
2021/08/09 04:01:24;;;;;;;3.00;1.80;;;19.10;99.90;;;;;;6276007;28;20466;-63
2021/08/09 04:04:28;;;;;;;2.57;1.90;;;19.10;99.90;;;;;;6277127;28;20488;-63
2021/08/09 04:07:31;;;;;;;3.57;2.00;;;19.10;99.90;;;;;;6276670;28;20474;-63
2021/08/09 04:10:35;;;;;;;5.53;2.30;;;19.10;99.90;;;;;;6276935;28;20503;-63
2021/08/09 04:13:38;;;;;;;1.50;1.40;;;19.20;99.90;;;;;;6276547;28;20681;-64
2021/08/09 04:16:41;;;;;;;2.27;1.73;;;19.30;99.90;;;;;;6276466;28;20258;-63
2021/08/09 04:19:46;;;;;;;3.17;1.80;;;19.30;99.90;;;;;;6276414;28;20223;-63
2021/08/09 04:22:49;;;;;;;1.97;1.87;;;19.30;99.90;;;;;;6276119;28;20791;-63
2021/08/09 04:25:53;;;;;;;2.10;1.50;;;19.30;99.90;;;;;;6276852;28;20224;-63
2021/08/09 04:28:56;;;;;;;3.53;2.20;;;19.30;99.90;;;;;;6276599;28;20453;-63
2021/08/09 04:31:59;;;;;;;2.10;1.70;;;19.30;99.90;;;;;;6276659;28;20204;-63
2021/08/09 04:35:04;;;;;;;1.90;1.57;;;19.40;99.90;;;;;;6275960;28;20219;-63
2021/08/09 04:38:07;;;;;;;4.03;2.10;;;19.40;99.90;;;;;;6276131;28;20238;-63
2021/08/09 04:41:13;;;;;;;5.30;2.07;;;19.40;99.90;;;;;;6276098;28;20632;-63
2021/08/09 04:44:16;;;;;;;2.27;2.10;;;19.40;99.90;;;;;;6276422;28;20242;-63
2021/08/09 04:47:20;;;;;;;2.80;1.73;;;19.40;99.90;;;;;;6275847;28;20246;-64
2021/08/09 04:50:24;;;;;;;2.00;1.70;;;19.40;99.90;;;;;;6275980;28;20580;-64
2021/08/09 04:53:27;;;;;;;3.23;1.40;;;19.50;99.90;;;;;;6275677;28;20485;-64
2021/08/09 04:56:30;;;;;;;5.60;1.90;;;19.40;99.90;;;;;;6275919;28;20979;-63
2021/08/09 04:59:33;;;;;;;2.23;1.93;;;19.50;99.90;;;;;;6275555;28;20713;-63
2021/08/09 05:02:37;;;;;;;1.47;1.37;;;19.50;99.90;;;;;;6275684;28;20242;-63
2021/08/09 05:05:45;;;;;;;2.60;1.87;;;19.60;99.90;;;;;;6274886;28;20686;-64
2021/08/09 05:08:48;;;;;;;4.47;2.50;;;19.70;99.90;;;;;;6274695;28;20234;-63
2021/08/09 05:11:52;;;;;;;5.73;3.07;;;19.80;99.90;;;;;;6274022;28;20289;-63
2021/08/09 05:14:55;;;;;;;2.43;1.80;;;19.90;99.90;;;;;;6273992;28;20566;-63
2021/08/09 05:17:58;;;;;;;1.60;1.50;;;20.10;99.90;;;;;;6274547;28;20232;-63
2021/08/09 05:21:03;;;;;;;2.63;1.40;;;20.10;99.90;;;;;;6273491;28;20237;-63
2021/08/09 05:24:07;;;;;;;2.20;1.57;;;20.20;99.90;;;;;;6274967;28;20235;-64
2021/08/09 05:27:10;;;;;;;1.83;1.67;;;20.20;99.90;;;;;;6268612;28;20570;-64
2021/08/09 05:30:13;;;;;;;4.50;2.00;;;20.30;99.90;;;;;;6273000;28;20228;-65
2021/08/09 05:33:16;;;;;;;3.07;1.73;;;20.40;99.90;;;;;;6272491;28;20270;-64
2021/08/09 05:36:21;;;;;;;3.10;2.13;;;20.40;99.90;;;;;;6252027;28;20286;-64
2021/08/09 05:39:24;;;;;;;1.83;1.73;;;20.50;99.90;;;;;;6284930;28;20223;-64
2021/08/09 05:42:28;;;;;;;3.60;2.30;;;20.50;99.90;;;;;;6284025;28;20230;-64
2021/08/09 05:45:31;;;;;;;1.87;1.53;;;20.60;99.90;;;;;;6279732;28;20223;-64
2021/08/09 05:48:34;;;;;;;1.77;1.57;;;20.60;99.90;;;;;;6276159;28;20234;-64
2021/08/09 05:51:40;;;;;;;2.87;1.97;;;20.70;99.90;;;;;;6274165;28;20231;-64
2021/08/09 05:54:43;;;;;;;2.30;1.63;;;20.80;99.90;;;;;;6274026;28;20239;-64
2021/08/09 05:57:46;;;;;;;4.90;1.40;;;20.80;99.90;;;;;;6274195;28;20231;-64
2021/08/09 06:00:50;;;;;;;5.80;1.73;;;20.80;99.90;;;;;;6274069;28;20227;-64
2021/08/09 06:03:53;;;;;;;4.63;1.70;;;20.80;99.90;;;;;;6274435;28;20236;-64
2021/08/09 06:06:58;;;;;;;1.93;1.83;;;20.80;99.90;;;;;;6273745;28;20243;-64
2021/08/09 06:10:01;;;;;;;1.70;1.60;;;20.80;99.90;;;;;;6273930;28;20235;-63
2021/08/09 06:13:04;;;;;;;4.80;1.50;;;21.00;99.90;;;;;;6274030;28;20227;-63
2021/08/09 06:16:08;;;;;;;1.60;1.50;;;21.10;99.90;;;;;;6274107;28;20245;-63
2021/08/09 06:19:11;;;;;;;3.83;1.60;;;21.20;99.90;;;;;;6273943;28;20234;-64
2021/08/09 06:22:16;;;;;;;1.50;1.40;;;21.30;99.90;;;;;;6273808;28;20721;-63
2021/08/09 06:25:19;;;;;;;1.70;1.60;;;21.30;99.90;;;;;;6273369;28;20243;-64
2021/08/09 06:28:23;;;;;;;1.70;1.50;;;21.30;99.90;;;;;;6274062;28;20223;-64
2021/08/09 06:31:26;;;;;;;5.00;3.20;;;21.60;99.90;;;;;;6264437;28;20235;-65
2021/08/09 06:34:30;;;;;;;3.23;1.50;;;21.90;99.90;;;;;;6273842;28;20329;-63
2021/08/09 06:37:35;;;;;;;2.47;1.40;;;22.40;99.90;;;;;;6273859;28;20228;-63
2021/08/09 06:40:43;;;;;;;1.77;1.67;;;22.60;99.90;;;;;;6273908;28;20232;-63
2021/08/09 06:43:46;;;;;;;2.73;1.70;;;22.80;99.90;;;;;;6273996;28;20277;-66
2021/08/09 06:46:49;;;;;;;1.87;1.67;;;22.80;99.90;;;;;;6273821;28;20226;-64
2021/08/09 06:49:52;;;;;;;4.90;1.70;;;22.80;99.90;;;;;;6273456;28;20207;-63
2021/08/09 06:52:56;;;;;;;3.20;1.70;;;22.60;99.90;;;;;;6273339;28;20218;-63
2021/08/09 06:56:00;;;;;;;3.53;1.47;;;22.40;99.90;;;;;;6274066;28;20207;-63
2021/08/09 06:59:03;;;;;;;4.17;2.30;;;22.20;99.90;;;;;;6273435;28;20204;-64
2021/08/09 07:02:07;;;;;;;3.20;1.60;;;22.00;99.90;;;;;;6273672;28;20292;-63
2021/08/09 07:05:11;;;;;;;2.87;1.60;;;21.90;99.90;;;;;;6273359;28;20239;-64
2021/08/09 07:08:16;;;;;;;4.93;2.17;;;21.90;99.90;;;;;;6273106;28;20250;-64
2021/08/09 07:11:21;;;;;;;2.87;2.00;;;21.90;99.90;;;;;;6273333;28;20609;-64
2021/08/09 07:14:24;;;;;;;2.97;2.13;;;21.90;99.90;;;;;;6273860;28;20243;-64
2021/08/09 07:17:27;;;;;;;2.20;2.00;;;22.00;99.90;;;;;;6273418;28;20232;-64
2021/08/09 07:20:31;;;;;;;4.50;2.10;;;22.20;99.90;;;;;;6280659;28;20231;-64
2021/08/09 07:23:35;;;;;;;5.63;2.10;;;22.30;99.90;;;;;;6273389;28;20313;-63
2021/08/09 07:26:38;;;;;;;2.97;1.73;;;22.30;99.90;;;;;;6291970;28;20235;-63
2021/08/09 07:29:41;;;;;;;3.60;2.13;;;22.40;99.90;;;;;;6294807;28;20250;-64
2021/08/09 07:32:46;;;;;;;4.10;2.17;;;22.60;99.90;;;;;;6285402;28;20231;-64
2021/08/09 07:35:49;;;;;;;4.70;2.50;;;22.90;99.90;;;;;;6296526;28;20242;-64
2021/08/09 07:38:54;;;;;;;6.33;1.97;;;23.20;99.90;;;;;;6288087;28;20324;-63
2021/08/09 07:41:57;;;;;;;3.03;1.80;;;23.30;99.90;;;;;;6285103;28;20704;-65
2021/08/09 07:58:36;;;;;;;1.97;1.77;;;23.50;99.90;;;;;;6370242;27;20565;-67
2021/08/09 08:01:40;;;;;;;1.57;1.20;;;27.20;96.90;;;;;;6335012;27;20236;-67
2021/08/09 08:04:43;;;;;;;1.63;1.07;;;28.10;92.50;;;;;;6331066;28;20232;-67
2021/08/09 08:07:46;;;;;;;2.53;1.63;;;27.90;91.00;;;;;;6329052;28;20222;-67
2021/08/09 08:10:50;;;;;;;2.30;1.70;;;28.00;90.20;;;;;;6332609;28;20217;-67
2021/08/09 08:13:55;;;;;;;3.00;2.00;;;28.50;90.00;;;;;;6325459;27;20224;-67
2021/08/09 08:16:59;;;;;;;2.50;1.73;;;28.40;88.80;;;;;;6320190;27;20217;-67
2021/08/09 08:20:02;;;;;;;1.90;1.60;;;30.80;82.70;;;;;;6331777;28;20570;-68
2021/08/09 08:23:05;;;;;;;3.88;2.22;;;34.30;68.90;;;;;;6322378;28;20194;-68
2021/08/09 08:26:08;;;;;;;3.35;1.85;;;34.40;61.20;;;;;;6330910;28;20215;-67
2021/08/09 08:29:13;;;;;;;2.42;1.80;;;34.00;60.30;;;;;;6323436;27;20229;-68
2021/08/09 08:32:16;;;;;;;3.10;1.77;;;35.40;58.10;;;;;;6329970;28;20236;-68
2021/08/09 08:35:19;;;;;;;2.08;1.80;;;35.80;53.90;;;;;;6337072;27;20221;-68
2021/08/09 08:38:22;;;;;;;1.95;1.50;;;35.50;53.60;;;;;;6333702;27;20239;-68
2021/08/09 08:41:26;;;;;;;1.73;1.63;;;35.40;53.40;;;;;;6329477;27;20221;-68
2021/08/09 08:44:31;;;;;;;1.90;1.30;;;36.60;52.00;;;;;;6332342;27;20681;-68
2021/08/09 08:47:36;;;;;;;2.10;1.90;;;38.30;47.90;;;;;;6344857;27;20281;-68
2021/08/09 08:50:39;;;;;;;1.48;1.38;;;39.50;45.00;;;;;;6345241;27;20246;-68
2021/08/09 08:53:42;;;;;;;2.15;1.95;;;39.30;43.20;;;;;;6344632;27;20285;-68
2021/08/09 08:56:46;;;;;;;3.45;1.52;;;38.10;44.10;;;;;;6325363;28;20236;-68
2021/08/09 08:59:56;;;;;;;2.67;1.50;;;36.60;46.30;;;;;;6302348;28;20281;-68
2021/08/09 09:02:59;;;;;;;2.17;2.03;;;35.40;48.60;;;;;;6302588;28;20238;-68
2021/08/09 09:06:04;;;;;;;2.17;1.60;;;34.20;50.20;;;;;;6303955;28;20237;-68
2021/08/09 09:09:19;;;;;;;2.38;1.65;;;33.90;50.40;;;;;;6315795;28;20226;-68
2021/08/09 09:12:22;;;;;;;2.35;1.70;;;33.60;50.70;;;;;;6305717;28;20228;-68
2021/08/09 09:15:27;;;;;;;2.22;1.65;;;33.70;50.80;;;;;;6311551;28;20230;-68
2021/08/09 09:18:47;;;;;;;2.92;1.77;;;33.20;51.60;;;;;;6301987;28;20543;-67
2021/08/09 09:21:50;;;;;;;1.80;1.70;;;32.80;51.60;;;;;;6300816;28;20241;-68
2021/08/09 09:24:55;;;;;;;3.47;1.98;;;32.30;52.90;;;;;;6301883;28;20222;-68
2021/08/09 09:27:59;;;;;;;2.30;1.45;;;31.70;53.70;;;;;;6301590;28;20230;-68
2021/08/09 09:31:07;;;;;;;2.45;1.50;;;31.10;54.40;;;;;;6301930;28;20237;-68
2021/08/09 09:34:12;;;;;;;2.43;1.60;;;30.40;55.40;;;;;;6302362;28;20254;-69
2021/08/09 09:37:24;;;;;;;4.37;1.87;;;30.20;57.10;;;;;;6301322;28;20250;-72
2021/08/09 09:40:38;;;;;;;3.00;1.90;;;30.10;57.90;;;;;;6301680;28;20690;-66
2021/08/09 09:43:44;;;;;;;2.23;1.50;;;29.80;58.70;;;;;;6301412;28;20690;-69
2021/08/09 09:46:49;;;;;;;1.70;1.60;;;29.60;57.60;;;;;;6276370;28;20237;-70
2021/08/09 09:49:54;;;;;;;1.90;1.80;;;29.60;58.00;;;;;;6275657;28;20256;-72
2021/08/09 09:52:57;;;;;;;2.90;1.90;;;29.70;58.70;;;;;;6276358;28;20215;-66
2021/08/09 09:56:01;;;;;;;2.20;1.80;;;29.60;58.70;;;;;;6286974;28;20226;-70
2021/08/09 09:59:05;;;;;;;1.43;1.33;;;29.20;58.20;;;;;;6301312;28;20223;-72
2021/08/09 10:02:10;;;;;;;2.30;1.70;;;29.10;59.00;;;;;;6300903;28;20221;-66
2021/08/09 10:05:14;;;;;;;3.73;1.80;;;29.20;59.10;;;;;;6300904;28;20541;-66
2021/08/09 10:08:19;;;;;;;1.50;1.40;;;29.30;58.50;;;;;;6275791;28;20599;-70
2021/08/09 10:11:23;;;;;;;1.90;1.50;;;29.50;58.90;;;;;;6275301;28;20226;-65
2021/08/09 10:14:26;;;;;;;1.80;1.57;;;29.60;58.20;;;;;;6275660;28;20251;-65
2021/08/09 10:17:36;;;;;;;2.83;1.73;;;29.70;58.70;;;;;;6276028;28;20281;-65
2021/08/09 10:20:39;;;;;;;2.40;1.67;;;29.30;58.60;;;;;;6276079;28;20222;-69
2021/08/09 10:23:44;;;;;;;1.97;1.60;;;29.10;59.10;;;;;;6287915;28;20560;-68
2021/08/09 10:26:49;;;;;;;1.60;1.43;;;29.20;58.70;;;;;;6300570;28;20222;-69
2021/08/09 10:30:14;;;;;;;2.80;1.20;;;29.30;58.40;;;;;;6298949;28;20234;-68
2021/08/09 10:33:47;;;;;;;1.63;1.40;;;29.30;58.20;;;;;;6300032;28;20702;-69
2021/08/09 10:37:11;;;;;;;1.77;1.60;;;29.50;58.50;;;;;;6278632;28;20246;-69
2021/08/09 10:40:19;;;;;;;1.90;1.80;;;29.70;58.30;;;;;;6275239;28;20231;-68
2021/08/09 10:43:22;;;;;;;1.80;1.60;;;29.70;57.40;;;;;;6275095;28;20226;-68
2021/08/09 10:46:36;;;;;;;1.30;1.20;;;29.00;58.80;;;;;;6312429;28;20226;-65
2021/08/09 10:49:59;;;;;;;1.60;1.50;;;28.40;60.00;;;;;;6283590;28;20320;-65
2021/08/09 10:53:02;;;;;;;1.77;1.63;;;28.30;60.00;;;;;;6298742;28;20624;-65
2021/08/09 10:56:05;;;;;;;1.87;1.50;;;28.30;60.10;;;;;;6297806;28;20238;-65
2021/08/09 10:59:09;;;;;;;1.60;1.50;;;28.30;60.20;;;;;;6298643;28;20219;-69
2021/08/09 11:02:21;;;;;;;2.33;1.50;;;28.40;60.10;;;;;;6297590;28;20198;-67
2021/08/09 11:05:29;;;;;;;2.37;1.40;;;28.50;59.40;;;;;;6296940;28;20236;-67
2021/08/09 11:08:32;;;;;;;2.80;1.73;;;28.60;60.30;;;;;;6287463;28;20671;-64
2021/08/09 11:12:09;;;;;;;2.13;1.73;;;28.70;60.40;;;;;;6274520;28;20235;-65
2021/08/09 11:15:16;;;;;;;2.03;1.50;;;28.80;59.80;;;;;;6296927;28;20249;-67
2021/08/09 11:18:19;;;;;;;2.10;1.50;;;28.50;60.60;;;;;;6280381;28;20227;-65
2021/08/09 11:21:25;;;;;;;1.60;1.50;;;28.50;60.50;;;;;;6289287;28;20226;-67
2021/08/09 11:24:33;;;;;;;1.73;1.50;;;28.70;60.30;;;;;;6297543;28;20236;-67
2021/08/09 11:27:40;;;;;;;2.87;1.40;;;28.40;60.10;;;;;;6299120;28;20226;-66
2021/08/09 11:30:46;;;;;;;1.90;1.50;;;28.50;60.10;;;;;;6299128;28;20576;-64
2021/08/09 11:33:50;;;;;;;2.73;1.70;;;28.50;60.70;;;;;;6299505;28;20234;-65
2021/08/09 11:37:04;;;;;;;1.87;1.77;;;28.40;60.90;;;;;;6298984;28;20238;-64
2021/08/09 11:40:08;;;;;;;2.10;1.90;;;28.30;61.20;;;;;;6286642;28;20227;-65
2021/08/09 11:43:14;;;;;;;2.63;2.07;;;28.20;61.00;;;;;;6274356;28;20230;-65
2021/08/09 11:46:19;;;;;;;2.80;1.70;;;28.30;62.40;;;;;;6274147;28;20227;-66
2021/08/09 11:49:23;;;;;;;2.73;1.90;;;28.30;62.00;;;;;;6293505;28;20234;-66
2021/08/09 11:52:27;;;;;;;2.53;1.80;;;28.40;61.30;;;;;;6298835;28;20234;-65
2021/08/09 11:55:30;;;;;;;1.63;1.53;;;28.40;61.70;;;;;;6294700;28;20222;-66
2021/08/09 11:58:34;;;;;;;2.10;1.90;;;28.60;61.40;;;;;;6298636;28;20229;-64
2021/08/09 12:01:39;;;;;;;2.63;2.20;;;28.90;61.00;;;;;;6298760;28;20634;-64
2021/08/09 12:04:43;;;;;;;2.00;1.80;;;29.00;60.60;;;;;;6298641;28;20237;-64
2021/08/09 12:07:58;;;;;;;2.10;1.87;;;29.10;60.00;;;;;;6298421;28;20242;-64
2021/08/09 12:11:10;;;;;;;1.83;1.70;;;29.30;59.50;;;;;;6298802;28;20214;-64
2021/08/09 12:14:15;;;;;;;2.63;2.13;;;29.30;59.40;;;;;;6298231;28;20218;-66
2021/08/09 12:17:20;;;;;;;2.13;1.83;;;29.40;58.80;;;;;;6320243;28;20642;-64
2021/08/09 12:20:23;;;;;;;2.33;2.13;;;29.40;59.10;;;;;;6323077;28;20222;-62
2021/08/09 12:23:28;;;;;;;2.30;2.10;;;29.40;58.60;;;;;;6282597;28;20273;-64
2021/08/09 12:26:33;;;;;;;5.40;2.70;;;29.40;59.00;;;;;;6284287;28;20675;-63
2021/08/09 12:29:36;;;;;;;2.77;2.33;;;29.50;58.90;;;;;;6310101;28;20231;-63
2021/08/09 12:32:42;;;;;;;2.90;2.27;;;29.50;58.90;;;;;;6309715;28;20221;-63
2021/08/09 12:35:45;;;;;;;2.33;2.10;;;29.50;59.00;;;;;;6325575;28;20306;-62
2021/08/09 12:38:50;;;;;;;2.73;2.23;;;29.50;59.30;;;;;;6353088;27;20244;-63
2021/08/09 12:41:53;;;;;;;2.43;1.80;;;29.30;59.30;;;;;;6353398;27;20716;-63
2021/08/09 12:44:56;;;;;;;2.07;1.70;;;29.30;59.50;;;;;;6353196;27;20232;-63
2021/08/09 12:47:59;;;;;;;2.30;2.10;;;29.20;60.30;;;;;;6338140;28;20228;-66
2021/08/09 12:51:03;;;;;;;2.80;2.20;;;29.00;60.50;;;;;;6327621;28;20226;-66
2021/08/09 12:54:07;;;;;;;2.50;2.30;;;28.70;61.00;;;;;;6327839;28;20240;-65
2021/08/09 12:57:12;;;;;;;2.80;2.60;;;28.60;61.60;;;;;;6335810;28;20235;-66
2021/08/09 13:00:16;;;;;;;2.60;2.40;;;28.70;60.40;;;;;;6349365;27;20685;-63
2021/08/09 13:03:20;;;;;;;4.80;2.70;;;28.70;60.40;;;;;;6348918;27;20225;-63
2021/08/09 13:06:23;;;;;;;2.03;1.90;;;28.80;60.50;;;;;;6352380;27;20240;-63
2021/08/09 13:09:30;;;;;;;2.40;2.20;;;28.90;61.10;;;;;;6337695;28;20233;-62
2021/08/09 13:12:34;;;;;;;2.40;2.20;;;28.80;60.40;;;;;;6335483;27;20217;-62
2021/08/09 13:15:39;;;;;;;3.10;2.30;;;28.70;61.30;;;;;;6339086;28;20221;-62
2021/08/09 13:18:42;;;;;;;2.60;2.10;;;28.80;61.80;;;;;;6338047;27;20967;-61
2021/08/09 13:21:45;;;;;;;4.53;2.43;;;29.00;63.10;;;;;;6340124;28;20218;-62
2021/08/09 13:24:50;;;;;;;2.60;2.40;;;29.10;62.40;;;;;;6334870;27;20674;-62
2021/08/09 13:27:55;;;;;;;2.57;2.37;;;29.30;62.00;;;;;;6339054;28;20620;-63
2021/08/09 13:30:58;;;;;;;3.00;2.20;;;29.40;60.80;;;;;;6334113;27;20213;-63
2021/08/09 13:34:02;;;;;;;2.60;2.37;;;29.30;60.80;;;;;;6338865;28;20313;-63
2021/08/09 13:37:05;;;;;;;5.50;2.77;;;29.20;61.60;;;;;;6335215;27;20574;-65
2021/08/09 13:40:10;;;;;;;3.23;2.80;;;29.20;62.20;;;;;;6326363;28;20673;-65
2021/08/09 13:43:25;;;;;;;6.30;3.20;;;29.10;60.70;;;;;;6326405;28;20237;-65
2021/08/09 13:46:28;;;;;;;2.73;2.53;;;28.80;61.70;;;;;;6326178;28;20237;-65
2021/08/09 13:49:31;;;;;;;3.50;3.20;;;28.50;62.40;;;;;;6325939;28;20229;-66
2021/08/09 13:52:34;;;;;;;3.40;2.57;;;28.60;61.90;;;;;;6326139;28;20241;-66
2021/08/09 13:55:39;;;;;;;2.50;2.30;;;28.60;62.10;;;;;;6327384;28;20678;-65
2021/08/09 13:58:42;;;;;;;2.90;2.70;;;28.60;62.70;;;;;;6345837;28;20225;-65
2021/08/09 14:01:45;;;;;;;2.53;2.33;;;28.30;62.90;;;;;;6351072;27;20229;-66
2021/08/09 14:04:49;;;;;;;2.60;2.40;;;28.20;63.40;;;;;;6351172;27;20233;-65
2021/08/09 14:07:52;;;;;;;2.83;2.57;;;28.10;64.20;;;;;;6350921;27;20241;-65
2021/08/09 14:10:56;;;;;;;2.67;2.47;;;28.10;63.70;;;;;;6350875;27;20232;-65
2021/08/09 14:14:00;;;;;;;4.27;2.90;;;27.70;65.00;;;;;;6351128;27;20220;-65
2021/08/09 14:17:04;;;;;;;3.20;2.90;;;27.80;64.90;;;;;;6350911;27;20232;-63
2021/08/09 14:20:08;;;;;;;2.50;2.27;;;27.80;64.40;;;;;;6351345;27;20208;-65
2021/08/09 14:23:11;;;;;;;2.93;2.73;;;27.90;64.70;;;;;;6351019;27;20200;-65
2021/08/09 14:26:16;;;;;;;2.80;2.60;;;28.00;64.70;;;;;;6326712;28;20205;-66
2021/08/09 14:29:19;;;;;;;2.60;2.40;;;28.00;64.90;;;;;;6325001;28;20233;-67
2021/08/09 14:32:24;;;;;;;2.87;2.67;;;28.10;65.60;;;;;;6324273;28;20254;-66
2021/08/09 14:35:27;;;;;;;3.43;3.17;;;28.00;64.80;;;;;;6324145;28;20221;-66
2021/08/09 14:38:31;;;;;;;3.40;2.90;;;27.90;64.60;;;;;;6322644;28;20244;-66
2021/08/09 14:41:36;;;;;;;4.00;2.80;;;27.90;65.10;;;;;;6323087;28;20225;-67
2021/08/09 14:44:39;;;;;;;3.07;2.57;;;28.00;64.60;;;;;;6323047;28;20244;-65
2021/08/09 14:47:42;;;;;;;3.70;2.67;;;28.10;64.40;;;;;;6322758;28;20266;-66
2021/08/09 14:50:45;;;;;;;3.13;2.83;;;28.20;64.50;;;;;;6323582;28;20233;-65
2021/08/09 14:53:48;;;;;;;3.03;2.73;;;28.20;64.70;;;;;;6324770;28;20233;-65
2021/08/09 14:56:53;;;;;;;2.83;2.63;;;28.20;64.60;;;;;;6329595;28;20654;-66
2021/08/09 14:59:56;;;;;;;2.87;2.40;;;28.00;64.00;;;;;;6350214;27;20233;-66
2021/08/09 15:02:59;;;;;;;3.10;2.80;;;28.10;64.30;;;;;;6334211;27;20226;-65
2021/08/09 15:06:02;;;;;;;5.10;2.30;;;28.20;64.00;;;;;;6334648;27;20232;-62
2021/08/09 15:09:05;;;;;;;5.07;2.70;;;28.20;63.70;;;;;;6329782;28;20225;-62
2021/08/09 15:12:10;;;;;;;3.23;2.67;;;28.10;63.20;;;;;;6341385;27;20364;-63
2021/08/09 15:15:13;;;;;;;3.07;2.77;;;28.00;64.60;;;;;;6333026;28;20221;-62
2021/08/09 15:18:17;;;;;;;2.80;2.50;;;28.00;64.50;;;;;;6324132;28;20697;-62
2021/08/09 15:21:20;;;;;;;3.27;2.93;;;28.00;64.90;;;;;;6313567;28;20245;-62
2021/08/09 15:24:23;;;;;;;8.93;3.40;;;28.10;65.00;;;;;;6299054;28;20226;-62
2021/08/09 15:27:28;;;;;;;3.43;2.63;;;28.10;64.90;;;;;;6299105;28;20248;-62
2021/08/09 15:30:31;;;;;;;2.80;2.60;;;28.20;65.10;;;;;;6299058;28;20234;-63
2021/08/09 15:33:34;;;;;;;3.03;2.40;;;28.30;65.20;;;;;;6337255;27;20228;-66
2021/08/09 15:36:37;;;;;;;3.33;2.57;;;28.30;64.30;;;;;;6348890;27;20232;-67
2021/08/09 15:39:41;;;;;;;3.23;2.10;;;28.30;64.60;;;;;;6349349;27;20224;-66
2021/08/09 15:42:45;;;;;;;3.13;2.60;;;28.40;64.80;;;;;;6349368;27;20236;-66
2021/08/09 15:45:49;;;;;;;2.97;2.30;;;28.50;64.70;;;;;;6349139;27;20240;-66
2021/08/09 15:48:52;;;;;;;4.33;2.90;;;28.40;64.30;;;;;;6333078;27;20696;-63
2021/08/09 15:51:56;;;;;;;2.23;2.07;;;28.40;64.10;;;;;;6323605;28;20260;-66
2021/08/09 15:54:59;;;;;;;3.23;2.97;;;28.40;64.80;;;;;;6325399;28;20225;-66
2021/08/09 15:58:03;;;;;;;3.90;2.23;;;28.40;64.40;;;;;;6337443;28;20228;-66
2021/08/09 16:01:07;;;;;;;2.63;2.43;;;28.50;64.30;;;;;;6337833;27;20222;-66
2021/08/09 16:04:11;;;;;;;2.57;2.37;;;28.40;63.80;;;;;;6298304;28;20570;-65
2021/08/09 16:07:14;;;;;;;2.70;2.50;;;28.40;64.10;;;;;;6298469;28;20252;-64
2021/08/09 16:10:17;;;;;;;3.17;2.63;;;28.40;64.10;;;;;;6303365;28;20233;-66
2021/08/09 16:13:22;;;;;;;3.53;3.07;;;28.20;64.70;;;;;;6303336;28;20230;-63
2021/08/09 16:16:25;;;;;;;3.23;3.03;;;28.20;65.00;;;;;;6303280;28;20226;-63